sensor_id;sensor_type;location;lat;lon;timestamp;pressure;altitude;pressure_sealevel;temperature;humidity
37142;BME280;23041;49.816;20.092;2022-09-12T00:00:33;97492.72;;;12.71;76.56
37142;BME280;23041;49.816;20.092;2022-09-12T00:03:01;97488.73;;;12.67;76.52
37142;BME280;23041;49.816;20.092;2022-09-12T00:05:27;97480.19;;;12.52;76.47
37142;BME280;23041;49.816;20.092;2022-09-12T00:07:55;97474.84;;;12.53;76.47
37142;BME280;23041;49.816;20.092;2022-09-12T00:10:21;97479.50;;;12.61;76.49
37142;BME280;23041;49.816;20.092;2022-09-12T00:12:47;97491.73;;;12.60;76.49
37142;BME280;23041;49.816;20.092;2022-09-12T00:15:14;97489.50;;;12.67;76.47
37142;BME280;23041;49.816;20.092;2022-09-12T00:17:40;97486.34;;;12.74;76.45
37142;BME280;23041;49.816;20.092;2022-09-12T00:20:07;97482.92;;;12.69;76.45
37142;BME280;23041;49.816;20.092;2022-09-12T00:22:35;97484.80;;;12.73;76.45
37142;BME280;23041;49.816;20.092;2022-09-12T00:25:03;97486.20;;;12.77;76.48
37142;BME280;23041;49.816;20.092;2022-09-12T00:27:30;97487.16;;;12.83;76.47
37142;BME280;23041;49.816;20.092;2022-09-12T00:29:56;97489.64;;;12.86;76.48
37142;BME280;23041;49.816;20.092;2022-09-12T00:32:22;97491.45;;;12.84;76.45
37142;BME280;23041;49.816;20.092;2022-09-12T00:34:48;97484.02;;;12.72;76.42
37142;BME280;23041;49.816;20.092;2022-09-12T00:37:14;97485.84;;;12.71;76.42
37142;BME280;23041;49.816;20.092;2022-09-12T00:39:40;97481.11;;;12.71;76.42
37142;BME280;23041;49.816;20.092;2022-09-12T00:42:08;97490.66;;;12.79;76.42
37142;BME280;23041;49.816;20.092;2022-09-12T00:47:16;97496.36;;;12.85;76.40
37142;BME280;23041;49.816;20.092;2022-09-12T00:50:07;97486.31;;;12.69;76.38
37142;BME280;23041;49.816;20.092;2022-09-12T00:52:42;97484.88;;;12.64;76.40
37142;BME280;23041;49.816;20.092;2022-09-12T00:55:24;97493.24;;;12.56;76.39
37142;BME280;23041;49.816;20.092;2022-09-12T00:58:03;97490.19;;;12.59;76.35
37142;BME280;23041;49.816;20.092;2022-09-12T01:00:37;97495.91;;;12.47;76.33
37142;BME280;23041;49.816;20.092;2022-09-12T01:03:10;97487.05;;;12.31;76.28
37142;BME280;23041;49.816;20.092;2022-09-12T01:05:40;97495.23;;;12.39;76.31
37142;BME280;23041;49.816;20.092;2022-09-12T01:08:10;97492.95;;;12.42;76.37
37142;BME280;23041;49.816;20.092;2022-09-12T01:10:37;97500.89;;;12.57;76.38
37142;BME280;23041;49.816;20.092;2022-09-12T01:13:06;97507.67;;;12.65;76.41
37142;BME280;23041;49.816;20.092;2022-09-12T01:15:36;97508.64;;;12.71;76.40
37142;BME280;23041;49.816;20.092;2022-09-12T01:24:00;97502.41;;;12.58;76.44
37142;BME280;23041;49.816;20.092;2022-09-12T01:27:42;97513.52;;;12.67;76.44
37142;BME280;23041;49.816;20.092;2022-09-12T01:32:58;97513.28;;;12.57;76.40
37142;BME280;23041;49.816;20.092;2022-09-12T01:35:51;97507.55;;;12.34;76.40
37142;BME280;23041;49.816;20.092;2022-09-12T01:41:38;97513.63;;;12.29;76.37
37142;BME280;23041;49.816;20.092;2022-09-12T01:46:58;97508.08;;;12.24;76.33
37142;BME280;23041;49.816;20.092;2022-09-12T01:49:48;97504.75;;;12.12;76.34
37142;BME280;23041;49.816;20.092;2022-09-12T01:55:24;97506.98;;;12.22;76.40
37142;BME280;23041;49.816;20.092;2022-09-12T01:57:56;97509.31;;;12.11;76.39
37142;BME280;23041;49.816;20.092;2022-09-12T02:00:36;97511.81;;;12.01;76.36
37142;BME280;23041;49.816;20.092;2022-09-12T02:03:16;97507.75;;;11.80;76.38
37142;BME280;23041;49.816;20.092;2022-09-12T02:06:05;97504.78;;;11.74;76.39
37142;BME280;23041;49.816;20.092;2022-09-12T02:08:53;97516.34;;;11.82;76.39
37142;BME280;23041;49.816;20.092;2022-09-12T02:11:24;97512.98;;;11.82;76.37
37142;BME280;23041;49.816;20.092;2022-09-12T02:13:56;97501.96;;;11.70;76.37
37142;BME280;23041;49.816;20.092;2022-09-12T02:16:34;97507.37;;;11.61;76.39
37142;BME280;23041;49.816;20.092;2022-09-12T02:19:10;97506.86;;;11.58;76.42
37142;BME280;23041;49.816;20.092;2022-09-12T02:21:39;97518.80;;;11.59;76.44
37142;BME280;23041;49.816;20.092;2022-09-12T02:24:10;97515.27;;;11.59;76.43
37142;BME280;23041;49.816;20.092;2022-09-12T02:26:43;97511.09;;;11.54;76.42
37142;BME280;23041;49.816;20.092;2022-09-12T02:29:10;97500.30;;;11.34;76.39
37142;BME280;23041;49.816;20.092;2022-09-12T02:31:51;97498.22;;;11.26;76.41
37142;BME280;23041;49.816;20.092;2022-09-12T02:34:37;97499.69;;;11.22;76.45
37142;BME280;23041;49.816;20.092;2022-09-12T02:37:22;97512.09;;;11.27;76.49
37142;BME280;23041;49.816;20.092;2022-09-12T02:39:53;97510.69;;;11.35;76.51
37142;BME280;23041;49.816;20.092;2022-09-12T02:42:20;97507.30;;;11.43;76.53
37142;BME280;23041;49.816;20.092;2022-09-12T02:44:48;97508.61;;;11.52;76.57
37142;BME280;23041;49.816;20.092;2022-09-12T02:47:18;97505.59;;;11.41;76.63
37142;BME280;23041;49.816;20.092;2022-09-12T02:49:47;97503.33;;;11.44;76.69
37142;BME280;23041;49.816;20.092;2022-09-12T02:52:14;97500.27;;;11.55;76.76
37142;BME280;23041;49.816;20.092;2022-09-12T02:54:41;97498.17;;;11.59;76.78
37142;BME280;23041;49.816;20.092;2022-09-12T02:57:18;97505.14;;;11.68;76.79
37142;BME280;23041;49.816;20.092;2022-09-12T02:59:47;97495.26;;;11.58;76.83
37142;BME280;23041;49.816;20.092;2022-09-12T03:14:08;97505.45;;;11.91;76.99
37142;BME280;23041;49.816;20.092;2022-09-12T03:22:25;97507.31;;;11.81;77.01
37142;BME280;23041;49.816;20.092;2022-09-12T03:28:03;97508.20;;;11.91;77.01
37142;BME280;23041;49.816;20.092;2022-09-12T03:30:41;97497.47;;;11.89;77.03
37142;BME280;23041;49.816;20.092;2022-09-12T03:33:14;97502.97;;;11.89;77.07
37142;BME280;23041;49.816;20.092;2022-09-12T03:35:46;97496.32;;;11.81;77.08
37142;BME280;23041;49.816;20.092;2022-09-12T03:38:14;97508.98;;;11.92;77.11
37142;BME280;23041;49.816;20.092;2022-09-12T03:40:41;97508.25;;;11.96;77.10
37142;BME280;23041;49.816;20.092;2022-09-12T03:43:08;97512.81;;;11.94;77.09
37142;BME280;23041;49.816;20.092;2022-09-12T03:45:35;97502.45;;;11.98;77.08
37142;BME280;23041;49.816;20.092;2022-09-12T03:48:03;97494.89;;;11.90;77.09
37142;BME280;23041;49.816;20.092;2022-09-12T03:50:31;97505.94;;;11.94;77.10
37142;BME280;23041;49.816;20.092;2022-09-12T03:52:58;97506.14;;;12.00;77.13
37142;BME280;23041;49.816;20.092;2022-09-12T03:55:25;97508.03;;;12.03;77.13
37142;BME280;23041;49.816;20.092;2022-09-12T03:57:52;97508.16;;;12.04;77.11
37142;BME280;23041;49.816;20.092;2022-09-12T04:00:20;97503.73;;;12.02;77.08
37142;BME280;23041;49.816;20.092;2022-09-12T04:02:47;97512.30;;;12.04;77.09
37142;BME280;23041;49.816;20.092;2022-09-12T04:05:13;97517.73;;;12.12;77.11
37142;BME280;23041;49.816;20.092;2022-09-12T04:07:40;97518.28;;;12.19;77.14
37142;BME280;23041;49.816;20.092;2022-09-12T04:10:07;97521.84;;;12.24;77.11
37142;BME280;23041;49.816;20.092;2022-09-12T04:12:33;97523.09;;;12.28;77.06
37142;BME280;23041;49.816;20.092;2022-09-12T04:15:00;97516.02;;;12.10;77.03
37142;BME280;23041;49.816;20.092;2022-09-12T04:17:27;97518.78;;;12.10;77.03
37142;BME280;23041;49.816;20.092;2022-09-12T04:19:53;97521.77;;;12.15;77.03
37142;BME280;23041;49.816;20.092;2022-09-12T04:22:19;97523.22;;;12.24;77.02
37142;BME280;23041;49.816;20.092;2022-09-12T04:24:45;97527.95;;;12.24;77.00
37142;BME280;23041;49.816;20.092;2022-09-12T04:27:12;97524.80;;;12.30;76.96
37142;BME280;23041;49.816;20.092;2022-09-12T04:29:39;97524.66;;;12.16;76.95
37142;BME280;23041;49.816;20.092;2022-09-12T04:32:05;97532.03;;;12.19;76.94
37142;BME280;23041;49.816;20.092;2022-09-12T04:34:31;97537.69;;;12.33;76.95
37142;BME280;23041;49.816;20.092;2022-09-12T04:36:59;97532.82;;;12.37;76.89
37142;BME280;23041;49.816;20.092;2022-09-12T04:39:26;97542.16;;;12.40;76.84
37142;BME280;23041;49.816;20.092;2022-09-12T04:41:52;97531.91;;;12.23;76.79
37142;BME280;23041;49.816;20.092;2022-09-12T04:44:19;97529.16;;;12.23;76.78
37142;BME280;23041;49.816;20.092;2022-09-12T04:46:45;97540.44;;;12.33;76.77
37142;BME280;23041;49.816;20.092;2022-09-12T04:49:14;97540.64;;;12.39;76.71
37142;BME280;23041;49.816;20.092;2022-09-12T04:51:42;97537.92;;;12.43;76.68
37142;BME280;23041;49.816;20.092;2022-09-12T04:54:17;97534.73;;;12.45;76.62
37142;BME280;23041;49.816;20.092;2022-09-12T04:56:47;97533.66;;;12.30;76.60
37142;BME280;23041;49.816;20.092;2022-09-12T04:59:15;97534.94;;;12.33;76.59
37142;BME280;23041;49.816;20.092;2022-09-12T05:01:42;97541.89;;;12.42;76.55
37142;BME280;23041;49.816;20.092;2022-09-12T05:04:10;97542.70;;;12.47;76.48
37142;BME280;23041;49.816;20.092;2022-09-12T05:06:38;97537.29;;;12.39;76.44
37142;BME280;23041;49.816;20.092;2022-09-12T05:09:07;97547.83;;;12.41;76.41
37142;BME280;23041;49.816;20.092;2022-09-12T05:11:38;97550.19;;;12.47;76.39
37142;BME280;23041;49.816;20.092;2022-09-12T05:14:05;97556.93;;;12.63;76.36
37142;BME280;23041;49.816;20.092;2022-09-12T05:16:33;97557.60;;;12.72;76.31
37142;BME280;23041;49.816;20.092;2022-09-12T05:18:59;97556.80;;;12.66;76.26
37142;BME280;23041;49.816;20.092;2022-09-12T05:21:26;97552.70;;;12.54;76.16
37142;BME280;23041;49.816;20.092;2022-09-12T05:23:54;97555.63;;;12.55;76.13
37142;BME280;23041;49.816;20.092;2022-09-12T05:26:22;97556.42;;;12.60;76.08
37142;BME280;23041;49.816;20.092;2022-09-12T05:28:51;97573.19;;;12.70;75.99
37142;BME280;23041;49.816;20.092;2022-09-12T05:31:20;97570.19;;;12.77;75.90
37142;BME280;23041;49.816;20.092;2022-09-12T05:33:48;97568.21;;;12.78;75.84
37142;BME280;23041;49.816;20.092;2022-09-12T05:36:18;97574.16;;;12.76;75.79
37142;BME280;23041;49.816;20.092;2022-09-12T05:38:49;97584.05;;;12.86;75.75
37142;BME280;23041;49.816;20.092;2022-09-12T05:41:21;97580.76;;;12.96;75.63
37142;BME280;23041;49.816;20.092;2022-09-12T05:43:45;97584.65;;;13.03;75.56
37142;BME280;23041;49.816;20.092;2022-09-12T05:46:17;97588.17;;;13.21;75.48
37142;BME280;23041;49.816;20.092;2022-09-12T05:48:46;97579.02;;;13.11;75.40
37142;BME280;23041;49.816;20.092;2022-09-12T05:51:16;97576.76;;;13.31;75.33
37142;BME280;23041;49.816;20.092;2022-09-12T05:53:48;97586.89;;;13.61;75.26
37142;BME280;23041;49.816;20.092;2022-09-12T05:56:19;97582.39;;;14.65;75.05
37142;BME280;23041;49.816;20.092;2022-09-12T05:59:00;97578.02;;;15.73;75.11
37142;BME280;23041;49.816;20.092;2022-09-12T06:01:27;97582.05;;;15.72;74.83
37142;BME280;23041;49.816;20.092;2022-09-12T06:03:56;97589.59;;;15.58;74.37
37142;BME280;23041;49.816;20.092;2022-09-12T06:06:25;97584.23;;;15.36;73.96
37142;BME280;23041;49.816;20.092;2022-09-12T06:08:56;97588.07;;;15.34;73.55
37142;BME280;23041;49.816;20.092;2022-09-12T06:11:25;97600.19;;;15.64;73.13
37142;BME280;23041;49.816;20.092;2022-09-12T06:13:55;97599.64;;;15.93;72.84
37142;BME280;23041;49.816;20.092;2022-09-12T06:16:24;97601.02;;;16.87;72.52
37142;BME280;23041;49.816;20.092;2022-09-12T06:18:55;97596.14;;;17.54;72.18
37142;BME280;23041;49.816;20.092;2022-09-12T06:21:22;97588.14;;;17.37;71.63
37142;BME280;23041;49.816;20.092;2022-09-12T06:23:49;97596.41;;;16.65;70.96
37142;BME280;23041;49.816;20.092;2022-09-12T06:26:17;97603.03;;;16.30;70.33
37142;BME280;23041;49.816;20.092;2022-09-12T06:28:46;97606.56;;;15.93;69.90
37142;BME280;23041;49.816;20.092;2022-09-12T06:31:21;97609.13;;;15.55;69.55
37142;BME280;23041;49.816;20.092;2022-09-12T06:33:51;97613.94;;;15.91;69.30
37142;BME280;23041;49.816;20.092;2022-09-12T06:36:23;97612.45;;;17.23;69.38
37142;BME280;23041;49.816;20.092;2022-09-12T06:39:00;97612.09;;;17.11;69.06
37142;BME280;23041;49.816;20.092;2022-09-12T06:41:29;97606.07;;;16.69;68.64
37142;BME280;23041;49.816;20.092;2022-09-12T06:43:56;97611.19;;;16.29;68.22
37142;BME280;23041;49.816;20.092;2022-09-12T06:46:24;97617.01;;;16.03;67.81
37142;BME280;23041;49.816;20.092;2022-09-12T06:48:51;97615.05;;;15.80;67.52
37142;BME280;23041;49.816;20.092;2022-09-12T06:51:18;97620.78;;;15.45;67.29
37142;BME280;23041;49.816;20.092;2022-09-12T06:53:45;97625.58;;;15.13;67.08
37142;BME280;23041;49.816;20.092;2022-09-12T06:56:17;97613.44;;;15.24;66.90
37142;BME280;23041;49.816;20.092;2022-09-12T06:58:48;97611.98;;;17.05;67.05
37142;BME280;23041;49.816;20.092;2022-09-12T07:01:20;97612.35;;;18.25;66.82
37142;BME280;23041;49.816;20.092;2022-09-12T07:03:51;97621.39;;;20.23;66.34
37142;BME280;23041;49.816;20.092;2022-09-12T07:06:23;97624.36;;;22.02;65.60
37142;BME280;23041;49.816;20.092;2022-09-12T07:08:59;97618.46;;;23.70;64.20
37142;BME280;23041;49.816;20.092;2022-09-12T07:11:32;97626.01;;;25.81;62.50
37142;BME280;23041;49.816;20.092;2022-09-12T07:14:01;97621.56;;;25.10;60.43
37142;BME280;23041;49.816;20.092;2022-09-12T07:16:31;97628.91;;;23.46;58.56
37142;BME280;23041;49.816;20.092;2022-09-12T07:19:00;97632.06;;;22.69;57.52
37142;BME280;23041;49.816;20.092;2022-09-12T07:21:28;97635.40;;;23.71;56.87
37142;BME280;23041;49.816;20.092;2022-09-12T07:23:55;97629.24;;;26.74;56.41
37142;BME280;23041;49.816;20.092;2022-09-12T07:26:26;97626.44;;;27.40;54.82
37142;BME280;23041;49.816;20.092;2022-09-12T07:28:54;97629.65;;;27.97;53.35
37142;BME280;23041;49.816;20.092;2022-09-12T07:31:23;97622.95;;;26.88;51.66
37142;BME280;23041;49.816;20.092;2022-09-12T07:33:50;97618.89;;;27.75;50.45
37142;BME280;23041;49.816;20.092;2022-09-12T07:36:19;97621.62;;;28.29;49.08
37142;BME280;23041;49.816;20.092;2022-09-12T07:38:47;97628.13;;;29.87;48.15
37142;BME280;23041;49.816;20.092;2022-09-12T07:41:18;97640.33;;;30.94;46.47
37142;BME280;23041;49.816;20.092;2022-09-12T07:43:46;97646.39;;;31.45;44.59
37142;BME280;23041;49.816;20.092;2022-09-12T07:46:13;97643.27;;;29.46;43.31
37142;BME280;23041;49.816;20.092;2022-09-12T07:48:40;97636.08;;;27.51;42.80
37142;BME280;23041;49.816;20.092;2022-09-12T07:51:09;97649.03;;;25.30;42.51
37142;BME280;23041;49.816;20.092;2022-09-12T07:53:38;97654.48;;;25.65;42.76
37142;BME280;23041;49.816;20.092;2022-09-12T07:56:07;97644.51;;;28.88;42.78
37142;BME280;23041;49.816;20.092;2022-09-12T07:58:35;97651.02;;;32.13;42.13
37142;BME280;23041;49.816;20.092;2022-09-12T08:03:35;97638.48;;;34.65;38.66
37142;BME280;23041;49.816;20.092;2022-09-12T08:06:08;97644.28;;;36.60;37.25
37142;BME280;23041;49.816;20.092;2022-09-12T08:08:33;97639.66;;;36.75;35.66
37142;BME280;23041;49.816;20.092;2022-09-12T08:11:03;97651.39;;;32.83;34.04
37142;BME280;23041;49.816;20.092;2022-09-12T08:13:32;97651.29;;;31.13;33.77
37142;BME280;23041;49.816;20.092;2022-09-12T08:16:03;97649.23;;;32.66;33.56
37142;BME280;23041;49.816;20.092;2022-09-12T08:18:31;97641.84;;;34.71;33.10
37142;BME280;23041;49.816;20.092;2022-09-12T08:20:59;97641.66;;;36.43;32.31
37142;BME280;23041;49.816;20.092;2022-09-12T08:23:33;97641.50;;;37.99;31.26
37142;BME280;23041;49.816;20.092;2022-09-12T08:26:01;97648.85;;;36.95;30.02
37142;BME280;23041;49.816;20.092;2022-09-12T08:28:30;97645.92;;;38.12;29.04
37142;BME280;23041;49.816;20.092;2022-09-12T08:31:05;97638.18;;;38.14;27.76
37142;BME280;23041;49.816;20.092;2022-09-12T08:33:34;97636.45;;;37.55;26.99
37142;BME280;23041;49.816;20.092;2022-09-12T08:36:05;97639.98;;;38.09;27.12
37142;BME280;23041;49.816;20.092;2022-09-12T08:38:35;97642.38;;;36.53;26.79
37142;BME280;23041;49.816;20.092;2022-09-12T08:47:24;97640.77;;;30.08;28.22
37142;BME280;23041;49.816;20.092;2022-09-12T08:58:18;97638.37;;;38.51;25.21
37142;BME280;23041;49.816;20.092;2022-09-12T09:15:17;97632.99;;;34.22;25.62
37142;BME280;23041;49.816;20.092;2022-09-12T09:20:37;97645.13;;;36.21;24.87
37142;BME280;23041;49.816;20.092;2022-09-12T09:26:05;97638.91;;;38.37;24.18
37142;BME280;23041;49.816;20.092;2022-09-12T09:28:50;97643.02;;;36.21;23.37
37142;BME280;23041;49.816;20.092;2022-09-12T09:31:25;97647.17;;;34.76;23.16
37142;BME280;23041;49.816;20.092;2022-09-12T09:33:53;97649.36;;;31.86;23.56
37142;BME280;23041;49.816;20.092;2022-09-12T09:36:50;97650.28;;;29.82;24.33
37142;BME280;23041;49.816;20.092;2022-09-12T09:44:56;97643.80;;;32.94;25.74
37142;BME280;23041;49.816;20.092;2022-09-12T09:47:25;97636.54;;;35.52;24.93
37142;BME280;23041;49.816;20.092;2022-09-12T09:49:51;97628.78;;;37.04;24.05
37142;BME280;23041;49.816;20.092;2022-09-12T09:52:23;97624.89;;;37.86;23.05
37142;BME280;23041;49.816;20.092;2022-09-12T09:54:59;97611.03;;;38.27;22.32
37142;BME280;23041;49.816;20.092;2022-09-12T09:57:37;97628.98;;;37.60;21.85
37142;BME280;23041;49.816;20.092;2022-09-12T10:00:22;97629.06;;;35.10;21.83
37142;BME280;23041;49.816;20.092;2022-09-12T10:05:48;97632.53;;;39.20;21.37
37142;BME280;23041;49.816;20.092;2022-09-12T10:08:19;97632.03;;;39.61;20.24
37142;BME280;23041;49.816;20.092;2022-09-12T10:13:35;97632.88;;;39.63;19.86
37142;BME280;23041;49.816;20.092;2022-09-12T10:16:20;97631.70;;;40.44;19.39
37142;BME280;23041;49.816;20.092;2022-09-12T10:19:02;97632.09;;;39.99;18.80
37142;BME280;23041;49.816;20.092;2022-09-12T10:21:42;97634.77;;;41.29;18.67
37142;BME280;23041;49.816;20.092;2022-09-12T10:24:24;97630.75;;;41.35;18.42
37142;BME280;23041;49.816;20.092;2022-09-12T10:32:22;97630.02;;;41.79;17.62
37142;BME280;23041;49.816;20.092;2022-09-12T10:35:03;97630.88;;;43.56;17.19
37142;BME280;23041;49.816;20.092;2022-09-12T10:37:35;97626.89;;;44.36;16.83
37142;BME280;23041;49.816;20.092;2022-09-12T10:40:06;97622.27;;;43.40;16.26
37142;BME280;23041;49.816;20.092;2022-09-12T10:42:48;97627.98;;;42.41;16.15
37142;BME280;23041;49.816;20.092;2022-09-12T10:45:25;97627.16;;;40.80;16.40
37142;BME280;23041;49.816;20.092;2022-09-12T10:48:01;97630.11;;;42.56;16.58
37142;BME280;23041;49.816;20.092;2022-09-12T11:01:38;97619.05;;;42.35;15.40
37142;BME280;23041;49.816;20.092;2022-09-12T11:07:36;97619.95;;;44.63;14.93
37142;BME280;23041;49.816;20.092;2022-09-12T11:13:21;97629.41;;;45.04;13.82
37142;BME280;23041;49.816;20.092;2022-09-12T11:24:39;97618.42;;;40.92;15.10
37142;BME280;23041;49.816;20.092;2022-09-12T11:27:18;97613.41;;;42.54;14.72
37142;BME280;23041;49.816;20.092;2022-09-12T11:30:10;97615.80;;;42.28;14.54
37142;BME280;23041;49.816;20.092;2022-09-12T11:35:38;97614.66;;;38.74;14.86
37142;BME280;23041;49.816;20.092;2022-09-12T11:41:20;97623.48;;;34.83;16.43
37142;BME280;23041;49.816;20.092;2022-09-12T11:46:49;97624.39;;;32.33;18.31
37142;BME280;23041;49.816;20.092;2022-09-12T11:49:23;97614.52;;;36.13;18.47
37142;BME280;23041;49.816;20.092;2022-09-12T11:52:18;97621.14;;;38.39;17.93
37142;BME280;23041;49.816;20.092;2022-09-12T11:57:40;97625.64;;;40.13;16.68
37142;BME280;23041;49.816;20.092;2022-09-12T12:05:38;97625.55;;;39.11;16.02
37142;BME280;23041;49.816;20.092;2022-09-12T12:08:23;97623.46;;;40.25;15.96
37142;BME280;23041;49.816;20.092;2022-09-12T12:11:01;97616.63;;;42.15;15.63
37142;BME280;23041;49.816;20.092;2022-09-12T12:13:53;97622.77;;;41.78;15.19
37142;BME280;23041;49.816;20.092;2022-09-12T12:16:35;97624.95;;;42.38;14.81
37142;BME280;23041;49.816;20.092;2022-09-12T12:19:03;97617.72;;;41.92;14.85
37142;BME280;23041;49.816;20.092;2022-09-12T12:21:44;97625.35;;;40.73;14.63
37142;BME280;23041;49.816;20.092;2022-09-12T12:24:26;97614.67;;;39.71;15.08
37142;BME280;23041;49.816;20.092;2022-09-12T12:26:57;97605.06;;;38.34;15.32
37142;BME280;23041;49.816;20.092;2022-09-12T12:29:37;97613.24;;;36.75;16.07
37142;BME280;23041;49.816;20.092;2022-09-12T12:34:39;97618.34;;;40.23;15.88
37142;BME280;23041;49.816;20.092;2022-09-12T12:39:58;97610.67;;;38.67;15.62
37142;BME280;23041;49.816;20.092;2022-09-12T12:47:58;97607.69;;;38.77;16.14
37142;BME280;23041;49.816;20.092;2022-09-12T12:50:27;97623.59;;;38.67;16.06
37142;BME280;23041;49.816;20.092;2022-09-12T12:52:59;97607.05;;;37.98;16.13
37142;BME280;23041;49.816;20.092;2022-09-12T12:55:46;97618.06;;;36.73;16.54
37142;BME280;23041;49.816;20.092;2022-09-12T13:01:11;97618.46;;;35.20;17.65
37142;BME280;23041;49.816;20.092;2022-09-12T13:03:45;97622.87;;;36.19;17.83
37142;BME280;23041;49.816;20.092;2022-09-12T13:06:54;97607.97;;;35.91;17.69
37142;BME280;23041;49.816;20.092;2022-09-12T13:09:05;97606.58;;;35.52;17.79
37142;BME280;23041;49.816;20.092;2022-09-12T13:11:38;97612.89;;;35.80;17.91
37142;BME280;23041;49.816;20.092;2022-09-12T13:14:08;97610.72;;;36.29;17.70
37142;BME280;23041;49.816;20.092;2022-09-12T13:16:55;97614.59;;;35.07;17.84
37142;BME280;23041;49.816;20.092;2022-09-12T13:19:26;97603.73;;;34.58;18.23
37142;BME280;23041;49.816;20.092;2022-09-12T13:22:03;97597.80;;;32.96;18.54
37142;BME280;23041;49.816;20.092;2022-09-12T13:24:31;97605.41;;;31.31;19.13
37142;BME280;23041;49.816;20.092;2022-09-12T13:26:58;97598.20;;;29.99;19.85
37142;BME280;23041;49.816;20.092;2022-09-12T13:29:26;97604.69;;;28.43;20.66
37142;BME280;23041;49.816;20.092;2022-09-12T13:31:55;97599.00;;;28.15;21.39
37142;BME280;23041;49.816;20.092;2022-09-12T13:35:18;97597.16;;;27.30;22.20
37142;BME280;23041;49.816;20.092;2022-09-12T13:40:29;97584.59;;;25.37;23.95
37142;BME280;23041;49.816;20.092;2022-09-12T13:43:14;97589.12;;;24.78;25.03
37142;BME280;23041;49.816;20.092;2022-09-12T13:45:44;97588.70;;;23.97;25.86
37142;BME280;23041;49.816;20.092;2022-09-12T13:48:19;97581.02;;;24.21;26.59
37142;BME280;23041;49.816;20.092;2022-09-12T13:50:53;97575.92;;;24.19;27.09
37142;BME280;23041;49.816;20.092;2022-09-12T13:53:24;97571.52;;;24.42;27.42
37142;BME280;23041;49.816;20.092;2022-09-12T13:55:57;97577.76;;;24.29;27.67
37142;BME280;23041;49.816;20.092;2022-09-12T13:58:29;97575.33;;;23.96;27.98
37142;BME280;23041;49.816;20.092;2022-09-12T14:01:11;97573.71;;;23.59;28.25
37142;BME280;23041;49.816;20.092;2022-09-12T14:03:42;97568.00;;;23.29;28.66
37142;BME280;23041;49.816;20.092;2022-09-12T14:06:51;97570.23;;;23.13;29.14
37142;BME280;23041;49.816;20.092;2022-09-12T14:09:25;97569.85;;;22.87;29.59
37142;BME280;23041;49.816;20.092;2022-09-12T14:11:58;97577.61;;;22.08;30.09
37142;BME280;23041;49.816;20.092;2022-09-12T14:14:33;97588.70;;;21.47;30.59
37142;BME280;23041;49.816;20.092;2022-09-12T14:17:31;97584.37;;;21.46;31.09
37142;BME280;23041;49.816;20.092;2022-09-12T14:19:55;97589.62;;;21.71;31.28
37142;BME280;23041;49.816;20.092;2022-09-12T14:22:24;97591.20;;;22.22;31.49
37142;BME280;23041;49.816;20.092;2022-09-12T14:24:53;97589.47;;;22.59;31.52
37142;BME280;23041;49.816;20.092;2022-09-12T14:27:26;97592.27;;;22.70;31.38
37142;BME280;23041;49.816;20.092;2022-09-12T14:35:45;97588.16;;;22.09;31.28
37142;BME280;23041;49.816;20.092;2022-09-12T14:38:20;97593.87;;;22.21;31.41
37142;BME280;23041;49.816;20.092;2022-09-12T14:41:01;97590.30;;;22.26;31.37
37142;BME280;23041;49.816;20.092;2022-09-12T14:43:41;97582.42;;;22.24;31.22
37142;BME280;23041;49.816;20.092;2022-09-12T14:46:17;97581.77;;;22.36;31.34
37142;BME280;23041;49.816;20.092;2022-09-12T14:48:55;97584.70;;;22.31;31.34
37142;BME280;23041;49.816;20.092;2022-09-12T14:51:34;97583.69;;;22.40;31.46
37142;BME280;23041;49.816;20.092;2022-09-12T14:57:00;97587.38;;;22.25;31.68
37142;BME280;23041;49.816;20.092;2022-09-12T14:59:38;97588.52;;;22.17;31.65
37142;BME280;23041;49.816;20.092;2022-09-12T15:07:59;97585.78;;;21.51;31.94
37142;BME280;23041;49.816;20.092;2022-09-12T15:10:36;97597.69;;;21.03;32.32
37142;BME280;23041;49.816;20.092;2022-09-12T15:13:15;97593.71;;;20.67;32.51
37142;BME280;23041;49.816;20.092;2022-09-12T15:15:46;97596.55;;;20.20;32.79
37142;BME280;23041;49.816;20.092;2022-09-12T15:18:17;97596.68;;;20.05;33.25
37142;BME280;23041;49.816;20.092;2022-09-12T15:20:47;97588.62;;;19.97;33.48
37142;BME280;23041;49.816;20.092;2022-09-12T15:25:55;97595.50;;;19.70;34.21
37142;BME280;23041;49.816;20.092;2022-09-12T15:28:22;97589.88;;;19.65;34.65
37142;BME280;23041;49.816;20.092;2022-09-12T15:30:51;97594.20;;;19.66;34.87
37142;BME280;23041;49.816;20.092;2022-09-12T15:33:20;97595.31;;;19.43;35.08
37142;BME280;23041;49.816;20.092;2022-09-12T15:35:49;97592.33;;;19.57;35.36
37142;BME280;23041;49.816;20.092;2022-09-12T15:38:17;97590.27;;;19.32;35.46
37142;BME280;23041;49.816;20.092;2022-09-12T15:40:43;97592.59;;;19.03;35.70
37142;BME280;23041;49.816;20.092;2022-09-12T15:43:12;97594.55;;;18.97;36.03
37142;BME280;23041;49.816;20.092;2022-09-12T15:45:41;97598.66;;;18.81;36.32
37142;BME280;23041;49.816;20.092;2022-09-12T15:48:07;97588.56;;;18.73;36.57
37142;BME280;23041;49.816;20.092;2022-09-12T15:50:34;97593.77;;;18.66;36.72
37142;BME280;23041;49.816;20.092;2022-09-12T15:53:00;97593.14;;;18.56;36.54
37142;BME280;23041;49.816;20.092;2022-09-12T15:55:29;97595.38;;;18.62;37.11
37142;BME280;23041;49.816;20.092;2022-09-12T15:57:59;97593.03;;;18.41;37.27
37142;BME280;23041;49.816;20.092;2022-09-12T16:00:25;97598.14;;;18.13;37.57
37142;BME280;23041;49.816;20.092;2022-09-12T16:02:52;97597.91;;;18.21;37.89
37142;BME280;23041;49.816;20.092;2022-09-12T16:05:22;97595.52;;;18.14;38.49
37142;BME280;23041;49.816;20.092;2022-09-12T16:07:51;97595.52;;;18.14;38.49